Time;durP1;ratioP1;P1;durP2;ratioP2;P2;SDS_P1;SDS_P2;PMS_P1;PMS_P2;Temp;Humidity;BMP_temperature;BMP_pressure;BME280_temperature;BME280_humidity;BME280_pressure;Samples;Min_cycle;Max_cycle;Signal;HPM_P1;HPM_P2
2021/06/18 00:00:01;;;;;;;1.87;1.13;;;24.80;99.90;;;;;;5101068;28;20289;-88
2021/06/18 00:02:27;;;;;;;1.43;1.33;;;24.70;99.90;;;;;;5099103;28;20708;-87
2021/06/18 00:04:53;;;;;;;1.97;1.30;;;24.60;99.90;;;;;;5114976;28;20221;-90
2021/06/18 00:07:20;;;;;;;1.90;1.43;;;24.60;99.90;;;;;;5144989;27;20216;-89
2021/06/18 00:09:46;;;;;;;1.27;1.17;;;24.60;99.90;;;;;;5117344;28;20188;-89
2021/06/18 00:12:12;;;;;;;1.30;1.20;;;24.50;99.90;;;;;;5129952;27;20177;-89
2021/06/18 00:14:38;;;;;;;1.03;0.90;;;24.50;99.90;;;;;;5120821;28;20255;-91
2021/06/18 00:17:04;;;;;;;1.07;0.93;;;24.60;99.90;;;;;;5127519;27;20183;-90
2021/06/18 00:19:30;;;;;;;1.33;1.07;;;24.60;99.90;;;;;;5121545;27;20199;-88
2021/06/18 00:21:55;;;;;;;1.17;0.77;;;24.60;99.90;;;;;;5130852;27;20196;-90
2021/06/18 00:24:21;;;;;;;1.10;0.70;;;24.40;99.90;;;;;;5116876;28;20188;-89
2021/06/18 00:26:46;;;;;;;0.90;0.90;;;24.20;99.90;;;;;;5123536;28;20667;-88
2021/06/18 00:29:12;;;;;;;0.83;0.70;;;24.20;99.90;;;;;;5092901;28;20215;-87
2021/06/18 00:31:37;;;;;;;1.37;1.27;;;24.30;99.90;;;;;;5097737;28;20191;-88
2021/06/18 00:34:03;;;;;;;0.87;0.87;;;24.30;99.90;;;;;;5097214;28;20188;-87
2021/06/18 00:36:29;;;;;;;1.40;1.30;;;24.40;99.90;;;;;;5107992;28;20212;-87
2021/06/18 00:38:54;;;;;;;3.00;1.10;;;24.50;99.90;;;;;;5098056;28;20208;-87
2021/06/18 00:41:24;;;;;;;1.10;1.00;;;24.60;99.90;;;;;;5122574;28;20232;-87
2021/06/18 00:43:54;;;;;;;0.97;0.93;;;24.60;99.90;;;;;;5098242;28;20625;-88
2021/06/18 00:46:20;;;;;;;1.43;1.10;;;24.60;99.90;;;;;;5092474;28;20204;-87
2021/06/18 00:48:47;;;;;;;1.47;1.37;;;24.60;99.90;;;;;;5100419;28;20236;-87
2021/06/18 00:51:13;;;;;;;2.07;1.10;;;24.60;99.90;;;;;;5097715;28;20172;-88
2021/06/18 00:53:42;;;;;;;1.03;0.90;;;24.60;99.90;;;;;;5113943;28;20552;-88
2021/06/18 00:56:08;;;;;;;1.10;1.00;;;24.50;99.90;;;;;;5110137;28;20263;-88
2021/06/18 00:58:33;;;;;;;2.43;1.50;;;24.60;99.90;;;;;;5121691;27;20299;-87
2021/06/18 01:00:59;;;;;;;2.40;1.40;;;24.60;99.90;;;;;;5120137;27;20709;-88
2021/06/18 01:03:25;;;;;;;1.70;1.60;;;24.60;99.90;;;;;;5099191;28;20191;-88
2021/06/18 01:05:54;;;;;;;2.00;1.20;;;24.60;99.90;;;;;;5101631;28;20183;-87
2021/06/18 01:08:41;;;;;;;2.93;1.77;;;24.50;99.90;;;;;;5112514;28;20988;-88
2021/06/18 01:11:09;;;;;;;1.03;1.00;;;24.40;99.90;;;;;;5105085;28;20195;-88
2021/06/18 01:13:38;;;;;;;1.23;1.13;;;24.50;99.90;;;;;;5109845;28;20221;-87
2021/06/18 01:16:26;;;;;;;0.90;0.90;;;24.50;99.90;;;;;;5099437;28;20180;-88
2021/06/18 01:19:22;;;;;;;1.13;1.07;;;24.50;99.90;;;;;;5104696;28;20719;-88
2021/06/18 01:22:04;;;;;;;1.70;1.50;;;24.20;99.90;;;;;;5104679;28;20179;-88
2021/06/18 01:25:14;;;;;;;1.00;1.00;;;24.30;99.90;;;;;;5110080;28;20191;-87
2021/06/18 01:28:02;;;;;;;1.10;1.10;;;24.40;99.90;;;;;;5103638;28;20199;-87
2021/06/18 01:30:30;;;;;;;1.20;0.90;;;24.40;99.90;;;;;;5109174;28;20554;-87
2021/06/18 01:33:03;;;;;;;1.30;1.20;;;24.30;99.90;;;;;;5106735;28;20188;-87
2021/06/18 01:35:54;;;;;;;1.23;1.13;;;24.20;99.90;;;;;;5106875;28;20280;-89
2021/06/18 01:38:21;;;;;;;0.63;0.63;;;23.80;99.90;;;;;;5095478;28;20675;-87
2021/06/18 01:40:53;;;;;;;1.37;1.13;;;23.50;99.90;;;;;;5101304;28;20666;-88
2021/06/18 01:43:21;;;;;;;1.27;1.07;;;23.30;99.90;;;;;;5094345;28;20207;-88
2021/06/18 01:45:49;;;;;;;1.27;1.17;;;23.30;99.90;;;;;;5109581;28;20199;-88
2021/06/18 01:48:17;;;;;;;2.17;0.87;;;23.20;99.90;;;;;;5110679;28;20187;-87
2021/06/18 01:50:44;;;;;;;1.97;0.77;;;23.20;99.90;;;;;;5100825;28;20214;-87
2021/06/18 01:53:13;;;;;;;0.90;0.83;;;23.30;99.90;;;;;;5105994;28;20188;-87
2021/06/18 01:55:41;;;;;;;1.23;1.13;;;23.10;99.90;;;;;;5112982;27;20188;-87
2021/06/18 01:58:09;;;;;;;0.70;0.70;;;23.20;99.90;;;;;;5097321;28;20193;-88
2021/06/18 02:00:47;;;;;;;2.17;1.03;;;23.30;99.90;;;;;;5104881;28;20644;-87
2021/06/18 02:03:19;;;;;;;1.57;1.47;;;23.40;99.90;;;;;;5097425;28;20184;-87
2021/06/18 02:05:45;;;;;;;0.63;0.63;;;23.50;99.90;;;;;;5095181;28;20251;-87
2021/06/18 02:08:12;;;;;;;0.80;0.80;;;23.50;99.90;;;;;;5093576;28;20208;-87
2021/06/18 02:10:41;;;;;;;2.20;0.83;;;23.60;99.90;;;;;;5108460;28;20211;-88
2021/06/18 02:13:08;;;;;;;0.90;0.87;;;23.60;99.90;;;;;;5093711;28;20253;-88
2021/06/18 02:15:36;;;;;;;0.60;0.60;;;23.60;99.90;;;;;;5095460;28;20734;-87
2021/06/18 02:18:03;;;;;;;1.90;1.10;;;23.70;99.90;;;;;;5093064;28;20184;-88
2021/06/18 02:20:30;;;;;;;0.87;0.87;;;23.70;99.90;;;;;;5096681;28;20184;-87
2021/06/18 02:22:56;;;;;;;0.70;0.70;;;23.70;99.90;;;;;;5109804;28;20255;-88
2021/06/18 02:25:23;;;;;;;0.60;0.60;;;23.70;99.90;;;;;;5099739;28;20180;-87
2021/06/18 02:27:49;;;;;;;1.23;1.13;;;23.70;99.90;;;;;;5105304;28;20231;-88
2021/06/18 02:30:15;;;;;;;0.83;0.83;;;23.70;99.90;;;;;;5095492;28;20231;-87
2021/06/18 02:32:43;;;;;;;0.60;0.60;;;23.70;99.90;;;;;;5111516;28;20184;-88
2021/06/18 02:35:19;;;;;;;1.30;0.80;;;23.50;99.90;;;;;;5114220;28;20184;-88
2021/06/18 02:37:44;;;;;;;0.90;0.90;;;23.50;99.90;;;;;;5103647;28;20183;-88
2021/06/18 02:40:10;;;;;;;2.80;1.33;;;23.50;99.90;;;;;;5101857;28;20302;-88
2021/06/18 02:42:36;;;;;;;1.00;1.00;;;23.40;99.90;;;;;;5110480;28;20215;-86
2021/06/18 02:45:03;;;;;;;1.43;1.33;;;23.50;99.90;;;;;;5103296;28;20183;-87
2021/06/18 02:47:53;;;;;;;1.43;1.00;;;23.50;99.90;;;;;;5103061;28;20299;-87
2021/06/18 02:50:38;;;;;;;0.97;0.90;;;23.30;99.90;;;;;;5098980;28;20200;-88
2021/06/18 02:53:26;;;;;;;1.00;1.00;;;23.20;99.90;;;;;;5095527;28;20187;-87
2021/06/18 02:55:57;;;;;;;0.90;0.90;;;23.10;99.90;;;;;;5102779;28;20181;-87
2021/06/18 02:58:40;;;;;;;0.50;0.50;;;22.90;99.90;;;;;;5093167;28;20218;-87
2021/06/18 03:01:06;;;;;;;1.13;1.10;;;22.90;99.90;;;;;;5096749;28;20187;-87
2021/06/18 03:03:39;;;;;;;2.83;1.40;;;22.90;99.90;;;;;;5097348;28;20184;-88
2021/06/18 03:06:06;;;;;;;0.57;0.57;;;23.10;99.90;;;;;;5094846;28;20191;-89
2021/06/18 03:08:42;;;;;;;1.10;1.07;;;23.10;99.90;;;;;;5100959;28;20208;-89
2021/06/18 03:11:38;;;;;;;1.30;1.20;;;23.00;99.90;;;;;;5104051;28;20184;-89
2021/06/18 03:14:07;;;;;;;0.80;0.80;;;23.10;99.90;;;;;;5099765;28;20177;-89
2021/06/18 03:16:34;;;;;;;1.17;0.67;;;23.10;99.90;;;;;;5105440;28;20192;-90
2021/06/18 03:19:04;;;;;;;1.20;0.90;;;23.00;99.90;;;;;;5103340;28;20247;-89
2021/06/18 03:21:33;;;;;;;1.60;1.10;;;23.10;99.90;;;;;;5099375;28;20229;-89
2021/06/18 03:24:01;;;;;;;1.33;0.90;;;23.10;99.90;;;;;;5097109;28;20200;-88
2021/06/18 03:26:28;;;;;;;2.67;1.20;;;23.20;99.90;;;;;;5095476;28;20568;-88
2021/06/18 03:28:55;;;;;;;0.57;0.57;;;23.20;99.90;;;;;;5103429;28;20570;-89
2021/06/18 03:31:22;;;;;;;1.13;1.00;;;23.10;99.90;;;;;;5118672;27;20640;-89
2021/06/18 03:33:49;;;;;;;1.00;1.00;;;23.20;99.90;;;;;;5104374;28;20195;-89
2021/06/18 03:36:21;;;;;;;1.23;0.73;;;23.10;99.90;;;;;;5099385;28;20195;-89
2021/06/18 03:38:47;;;;;;;2.00;1.37;;;23.30;99.90;;;;;;5098094;28;20265;-89
2021/06/18 03:41:14;;;;;;;0.80;0.50;;;23.50;99.90;;;;;;5098994;28;20262;-89
2021/06/18 03:43:40;;;;;;;0.63;0.63;;;24.00;99.90;;;;;;5101768;28;20188;-89
2021/06/18 03:46:08;;;;;;;0.67;0.60;;;24.50;99.90;;;;;;5095002;28;20249;-90
2021/06/18 03:48:52;;;;;;;0.70;0.70;;;24.90;99.90;;;;;;5102279;28;20659;-88
2021/06/18 03:51:17;;;;;;;0.67;0.67;;;25.40;99.90;;;;;;5092515;28;20179;-88
2021/06/18 03:53:43;;;;;;;1.03;1.03;;;25.70;99.90;;;;;;5111304;28;20274;-88
2021/06/18 03:56:11;;;;;;;1.20;1.20;;;25.90;99.90;;;;;;5096289;28;20219;-89
2021/06/18 03:58:40;;;;;;;3.83;1.80;;;25.50;99.90;;;;;;5107828;28;20208;-88
2021/06/18 04:01:09;;;;;;;5.27;3.13;;;25.50;99.90;;;;;;5110073;28;20179;-89
2021/06/18 04:03:35;;;;;;;1.47;1.37;;;25.20;99.90;;;;;;5106110;28;20193;-89
2021/06/18 04:06:04;;;;;;;2.27;2.07;;;25.20;99.90;;;;;;5117202;28;20610;-89
2021/06/18 04:08:31;;;;;;;2.90;2.20;;;25.30;99.90;;;;;;5096137;28;20204;-89
2021/06/18 04:10:57;;;;;;;2.93;1.77;;;25.30;99.90;;;;;;5102380;28;20660;-88
2021/06/18 04:13:23;;;;;;;2.77;1.70;;;25.40;99.90;;;;;;5124488;28;20192;-88
2021/06/18 04:15:49;;;;;;;1.60;1.50;;;25.50;99.90;;;;;;5101148;28;20184;-88
2021/06/18 04:18:21;;;;;;;1.30;1.20;;;25.50;99.90;;;;;;5097049;28;20195;-89
2021/06/18 04:20:51;;;;;;;1.33;1.23;;;25.40;99.90;;;;;;5111881;28;20181;-89
2021/06/18 04:23:28;;;;;;;2.50;2.07;;;25.50;99.90;;;;;;5097442;28;20218;-89
2021/06/18 04:25:54;;;;;;;3.70;2.10;;;25.50;99.90;;;;;;5099840;28;20218;-89
2021/06/18 04:28:20;;;;;;;3.47;2.30;;;25.40;99.90;;;;;;5106576;28;20740;-88
2021/06/18 04:30:45;;;;;;;2.90;2.17;;;25.00;99.90;;;;;;5095224;28;20267;-88
2021/06/18 04:33:11;;;;;;;1.67;1.57;;;24.60;99.90;;;;;;5107257;28;20187;-89
2021/06/18 04:35:36;;;;;;;1.93;1.60;;;24.60;99.90;;;;;;5107533;28;20236;-89
2021/06/18 04:38:06;;;;;;;1.93;1.63;;;24.60;99.90;;;;;;5096130;28;20184;-89
2021/06/18 04:40:32;;;;;;;1.57;1.47;;;24.60;99.90;;;;;;5108451;28;20180;-89
2021/06/18 04:42:59;;;;;;;1.60;1.50;;;24.60;99.90;;;;;;5113893;28;20190;-88
2021/06/18 04:45:25;;;;;;;4.67;1.87;;;24.70;99.90;;;;;;5102184;28;20176;-88
2021/06/18 04:47:51;;;;;;;1.33;1.23;;;24.70;99.90;;;;;;5099499;28;20253;-89
2021/06/18 04:50:16;;;;;;;3.73;1.93;;;24.00;99.90;;;;;;5114309;28;20204;-88
2021/06/18 04:52:42;;;;;;;3.73;2.00;;;24.10;99.90;;;;;;5109374;28;20175;-90
2021/06/18 04:55:27;;;;;;;2.33;2.13;;;23.70;99.90;;;;;;5104297;28;20185;-89
2021/06/18 04:57:53;;;;;;;2.20;1.93;;;23.50;99.90;;;;;;5104103;28;20188;-88
2021/06/18 05:00:23;;;;;;;1.40;1.30;;;23.50;99.90;;;;;;5106924;28;20206;-88
2021/06/18 05:02:49;;;;;;;2.83;1.80;;;23.50;99.90;;;;;;5114682;28;20183;-88
2021/06/18 05:05:15;;;;;;;1.73;1.37;;;23.60;99.90;;;;;;5099376;28;20202;-88
2021/06/18 05:07:40;;;;;;;1.73;1.63;;;24.10;99.90;;;;;;5113274;27;20326;-88
2021/06/18 05:10:07;;;;;;;1.80;1.67;;;24.20;99.90;;;;;;5098984;28;20287;-90
2021/06/18 05:12:33;;;;;;;1.57;1.23;;;24.10;99.90;;;;;;5106802;28;20226;-89
2021/06/18 05:14:58;;;;;;;1.27;1.17;;;24.10;99.90;;;;;;5113116;28;20674;-88
2021/06/18 05:17:24;;;;;;;1.70;1.33;;;24.10;99.90;;;;;;5112073;27;20559;-89
2021/06/18 05:19:49;;;;;;;3.23;1.90;;;24.30;99.90;;;;;;5097294;28;20299;-86
2021/06/18 05:22:15;;;;;;;5.93;3.03;;;24.60;99.90;;;;;;5105671;28;20188;-87
2021/06/18 05:24:41;;;;;;;1.20;1.10;;;24.90;99.90;;;;;;5110476;27;20204;-92
2021/06/18 05:27:06;;;;;;;1.80;0.83;;;25.10;99.90;;;;;;5098955;28;20212;-88
2021/06/18 05:29:34;;;;;;;1.60;1.13;;;25.30;99.90;;;;;;5096494;28;20290;-88
2021/06/18 05:31:59;;;;;;;1.40;1.30;;;25.20;99.90;;;;;;5105593;28;20188;-89
2021/06/18 05:34:35;;;;;;;2.40;1.67;;;24.90;99.90;;;;;;5095978;28;20180;-88
2021/06/18 05:37:01;;;;;;;1.83;1.13;;;24.90;99.90;;;;;;5099551;28;20213;-88
2021/06/18 05:39:26;;;;;;;1.97;1.43;;;25.00;99.90;;;;;;5101410;28;20225;-88
2021/06/18 05:41:52;;;;;;;1.63;1.10;;;25.10;99.90;;;;;;5105113;28;20196;-88
2021/06/18 05:44:17;;;;;;;1.27;1.27;;;25.20;99.90;;;;;;5108512;28;20194;-89
2021/06/18 05:46:43;;;;;;;1.87;1.60;;;25.10;99.90;;;;;;5109640;28;20294;-88
2021/06/18 05:49:08;;;;;;;1.13;0.83;;;25.40;99.90;;;;;;5107860;28;20212;-88
2021/06/18 05:51:34;;;;;;;2.03;1.80;;;25.40;99.90;;;;;;5109247;28;20187;-89
2021/06/18 05:54:00;;;;;;;0.93;0.93;;;25.40;99.90;;;;;;5099640;28;20184;-88
2021/06/18 05:56:26;;;;;;;2.03;1.57;;;25.50;99.90;;;;;;5113059;28;20184;-88
2021/06/18 05:59:14;;;;;;;1.37;1.27;;;25.70;99.90;;;;;;5104544;28;20291;-88
2021/06/18 06:01:40;;;;;;;2.47;0.97;;;25.80;99.90;;;;;;5107036;28;20271;-88
2021/06/18 06:04:05;;;;;;;0.93;0.93;;;26.40;99.90;;;;;;5111613;28;20620;-88
2021/06/18 06:06:31;;;;;;;3.53;1.40;;;26.70;99.90;;;;;;5107255;28;20582;-89
2021/06/18 06:08:57;;;;;;;1.90;1.77;;;27.00;99.90;;;;;;5103090;28;20242;-89
2021/06/18 06:11:24;;;;;;;1.50;1.17;;;27.30;99.90;;;;;;5100363;28;20229;-89
2021/06/18 06:13:56;;;;;;;1.77;1.40;;;27.50;99.90;;;;;;5102379;28;20184;-88
2021/06/18 06:16:27;;;;;;;1.53;1.10;;;27.80;99.90;;;;;;5099950;28;20612;-87
2021/06/18 06:18:52;;;;;;;1.13;1.03;;;28.10;99.90;;;;;;5096555;28;20772;-88
2021/06/18 06:21:23;;;;;;;1.90;1.77;;;28.20;99.90;;;;;;5090759;28;20275;-90
2021/06/18 06:23:50;;;;;;;0.90;0.90;;;28.40;99.90;;;;;;5091485;28;20204;-88
2021/06/18 06:26:16;;;;;;;1.47;1.40;;;28.50;99.90;;;;;;5090738;28;20216;-89
2021/06/18 06:28:54;;;;;;;1.83;1.73;;;28.70;99.90;;;;;;5102092;28;20683;-89
2021/06/18 06:31:20;;;;;;;2.58;2.00;;;28.60;99.90;;;;;;5111046;28;20202;-88
2021/06/18 06:33:48;;;;;;;2.65;1.58;;;28.80;99.90;;;;;;5106144;28;20183;-88
2021/06/18 06:36:14;;;;;;;1.40;1.30;;;28.90;99.90;;;;;;5101871;28;20267;-89
2021/06/18 06:38:39;;;;;;;1.20;1.10;;;29.00;99.90;;;;;;5100467;27;20290;-88
2021/06/18 06:41:05;;;;;;;0.88;0.88;;;29.20;99.90;;;;;;5098438;28;20212;-88
2021/06/18 06:43:31;;;;;;;1.88;1.58;;;29.20;99.90;;;;;;5100530;28;20203;-88
2021/06/18 06:45:57;;;;;;;1.65;1.55;;;29.20;99.90;;;;;;5095438;28;20250;-89
2021/06/18 06:48:22;;;;;;;1.30;1.15;;;29.40;99.90;;;;;;5122119;27;20264;-90
2021/06/18 06:50:56;;;;;;;2.03;1.23;;;29.50;99.90;;;;;;5106261;28;20275;-89
2021/06/18 06:53:22;;;;;;;2.78;1.58;;;29.50;99.90;;;;;;5109706;28;20546;-89
2021/06/18 06:55:48;;;;;;;2.38;2.20;;;28.90;99.90;;;;;;5098686;28;20176;-90
2021/06/18 06:58:14;;;;;;;2.08;1.88;;;29.10;99.90;;;;;;5109308;28;20645;-88
2021/06/18 07:00:40;;;;;;;2.42;1.70;;;28.90;99.90;;;;;;5103231;28;20180;-88
2021/06/18 07:03:05;;;;;;;1.48;1.38;;;28.90;99.90;;;;;;5104951;28;20211;-88
2021/06/18 07:05:31;;;;;;;1.88;1.17;;;29.30;99.90;;;;;;5098593;28;20571;-86
2021/06/18 07:07:56;;;;;;;2.50;2.25;;;29.60;99.90;;;;;;5100910;28;20211;-87
2021/06/18 07:10:22;;;;;;;2.05;1.85;;;28.90;99.90;;;;;;5098658;28;20609;-88
2021/06/18 07:12:48;;;;;;;1.77;1.67;;;28.70;99.90;;;;;;5098489;28;20918;-88
2021/06/18 07:15:14;;;;;;;3.47;2.20;;;29.00;99.90;;;;;;5101133;28;20184;-88
2021/06/18 07:17:40;;;;;;;1.30;1.20;;;29.30;99.90;;;;;;5093229;28;20682;-88
2021/06/18 07:20:06;;;;;;;2.85;1.40;;;29.40;99.90;;;;;;5109608;28;20311;-88
2021/06/18 07:22:31;;;;;;;3.88;1.90;;;29.50;99.90;;;;;;5103354;28;20175;-88
2021/06/18 07:24:58;;;;;;;2.10;1.80;;;29.20;99.90;;;;;;5122639;27;20203;-91
2021/06/18 07:27:25;;;;;;;1.30;1.25;;;29.20;99.90;;;;;;5137296;27;20214;-90
2021/06/18 07:29:53;;;;;;;1.40;1.30;;;29.50;99.90;;;;;;5121927;28;20219;-89
2021/06/18 07:32:19;;;;;;;1.27;1.17;;;29.80;99.90;;;;;;5133184;27;20299;-91
2021/06/18 07:34:44;;;;;;;1.20;1.10;;;29.60;99.90;;;;;;5102276;28;20678;-88
2021/06/18 07:37:10;;;;;;;1.40;1.30;;;29.80;99.90;;;;;;5100121;28;20211;-89
2021/06/18 07:39:36;;;;;;;1.50;1.40;;;30.10;99.90;;;;;;5095339;28;20199;-88
2021/06/18 07:42:01;;;;;;;3.20;1.10;;;30.00;99.90;;;;;;5103474;28;20564;-88
2021/06/18 07:44:27;;;;;;;1.73;1.35;;;30.00;99.90;;;;;;5109423;28;20211;-88
2021/06/18 07:46:53;;;;;;;1.20;0.98;;;30.10;99.90;;;;;;5103422;28;20203;-88
2021/06/18 07:49:18;;;;;;;3.70;1.75;;;30.00;99.90;;;;;;5104803;28;20689;-89
2021/06/18 07:51:44;;;;;;;1.63;1.30;;;30.10;99.90;;;;;;5104026;28;20176;-88
2021/06/18 07:54:10;;;;;;;2.13;0.73;;;30.20;99.90;;;;;;5109162;28;20168;-88
2021/06/18 07:56:42;;;;;;;2.38;0.98;;;30.40;99.90;;;;;;5101957;28;20182;-89
2021/06/18 07:59:08;;;;;;;1.55;1.08;;;30.60;99.90;;;;;;5107762;28;20337;-88
2021/06/18 08:01:33;;;;;;;0.98;0.77;;;30.40;99.90;;;;;;5103153;28;20175;-88
2021/06/18 08:03:59;;;;;;;3.20;1.92;;;30.60;99.90;;;;;;5099347;28;20752;-88
2021/06/18 08:06:24;;;;;;;2.42;1.58;;;30.60;99.90;;;;;;5111800;28;20292;-88
2021/06/18 08:08:50;;;;;;;2.97;2.60;;;30.60;99.90;;;;;;5110345;28;20278;-87
2021/06/18 08:11:16;;;;;;;1.10;1.10;;;30.70;99.90;;;;;;5102608;28;20229;-88
2021/06/18 08:13:42;;;;;;;1.27;1.17;;;30.70;99.90;;;;;;5106250;28;20176;-88
2021/06/18 08:16:08;;;;;;;1.67;0.95;;;30.80;99.90;;;;;;5116904;28;20184;-88
2021/06/18 08:18:35;;;;;;;1.38;1.20;;;31.00;99.90;;;;;;5114513;28;20200;-88
2021/06/18 08:21:05;;;;;;;0.75;0.75;;;31.20;99.90;;;;;;5101841;28;20179;-88
2021/06/18 08:23:31;;;;;;;1.20;1.10;;;31.80;99.90;;;;;;5100141;28;20191;-86
2021/06/18 08:25:57;;;;;;;3.25;1.85;;;31.90;99.90;;;;;;5094106;28;20603;-87
2021/06/18 08:28:23;;;;;;;1.73;1.05;;;31.70;99.90;;;;;;5090589;28;20234;-86
2021/06/18 08:30:48;;;;;;;0.95;0.80;;;32.10;99.90;;;;;;5102653;28;20202;-87
2021/06/18 08:33:17;;;;;;;1.30;1.20;;;32.50;99.90;;;;;;5098147;28;20181;-86
2021/06/18 08:35:42;;;;;;;1.77;1.67;;;32.60;99.90;;;;;;5111681;28;20219;-87
2021/06/18 08:38:08;;;;;;;1.90;1.80;;;32.40;99.90;;;;;;5096604;27;20830;-87
2021/06/18 08:40:35;;;;;;;1.13;1.00;;;32.30;99.90;;;;;;5108109;28;20209;-86
2021/06/18 08:43:02;;;;;;;0.77;0.77;;;32.50;99.90;;;;;;5092567;28;20188;-86
2021/06/18 08:45:28;;;;;;;1.15;1.00;;;32.10;99.90;;;;;;5115670;27;20179;-87
2021/06/18 08:47:54;;;;;;;1.42;1.33;;;32.20;99.90;;;;;;5101182;28;20676;-86
2021/06/18 08:50:23;;;;;;;0.73;0.73;;;32.60;99.90;;;;;;5094848;28;20280;-89
2021/06/18 08:52:58;;;;;;;2.50;1.45;;;32.90;99.90;;;;;;5101021;28;20180;-88
2021/06/18 08:55:28;;;;;;;1.13;0.90;;;32.50;99.90;;;;;;5093128;28;20187;-88
2021/06/18 08:57:58;;;;;;;1.88;1.77;;;32.80;99.90;;;;;;5114408;28;20283;-88
2021/06/18 09:00:25;;;;;;;1.30;1.20;;;32.80;99.90;;;;;;5096262;28;20244;-88
2021/06/18 09:02:51;;;;;;;9.82;1.20;;;33.10;99.90;;;;;;5099540;28;20199;-89
2021/06/18 09:05:17;;;;;;;1.15;1.08;;;32.50;99.90;;;;;;5094161;28;20581;-88
2021/06/18 09:07:53;;;;;;;2.53;2.03;;;32.50;99.90;;;;;;5102698;28;20215;-88
2021/06/18 09:10:29;;;;;;;1.52;1.20;;;32.30;99.90;;;;;;5095198;28;20197;-88
2021/06/18 09:13:18;;;;;;;1.67;1.58;;;32.20;99.90;;;;;;5092359;28;20176;-89
2021/06/18 09:15:56;;;;;;;1.98;1.83;;;32.20;99.90;;;;;;5107008;27;20180;-89
2021/06/18 09:18:25;;;;;;;1.35;1.15;;;32.40;99.90;;;;;;5098449;28;20180;-89
2021/06/18 09:21:13;;;;;;;1.05;1.00;;;32.50;99.90;;;;;;5096322;28;20226;-88
2021/06/18 09:23:43;;;;;;;2.40;1.35;;;32.30;99.90;;;;;;5088107;28;20207;-88
2021/06/18 09:26:38;;;;;;;1.15;1.05;;;32.30;99.90;;;;;;5110728;28;20782;-89
2021/06/18 09:29:06;;;;;;;1.77;1.10;;;32.30;99.90;;;;;;5112266;28;20264;-88
2021/06/18 09:31:46;;;;;;;1.95;1.85;;;32.60;99.90;;;;;;5109564;28;20261;-88
2021/06/18 09:34:12;;;;;;;0.95;0.95;;;32.50;99.90;;;;;;5112133;28;20764;-89
2021/06/18 09:36:39;;;;;;;2.47;1.15;;;32.70;99.90;;;;;;5095641;28;20287;-89
2021/06/18 09:39:16;;;;;;;1.45;1.35;;;32.50;99.90;;;;;;5106245;28;20644;-89
2021/06/18 09:41:44;;;;;;;0.82;0.80;;;32.50;99.90;;;;;;5095998;28;20263;-89
2021/06/18 09:44:11;;;;;;;1.42;1.33;;;33.30;99.90;;;;;;5098786;28;20192;-89
2021/06/18 09:46:57;;;;;;;1.63;1.52;;;33.10;99.90;;;;;;5110858;28;20199;-90
2021/06/18 09:49:32;;;;;;;0.80;0.80;;;32.80;99.90;;;;;;5103791;28;20192;-87
2021/06/18 09:52:00;;;;;;;5.15;1.00;;;32.60;99.90;;;;;;5096973;28;20662;-89
2021/06/18 09:54:34;;;;;;;2.45;2.28;;;33.00;99.90;;;;;;5100677;28;20182;-88
2021/06/18 09:57:09;;;;;;;0.70;0.70;;;33.60;99.90;;;;;;5099878;28;20222;-89
2021/06/18 09:59:55;;;;;;;1.67;1.40;;;34.10;99.90;;;;;;5106670;28;20719;-89
2021/06/18 10:02:34;;;;;;;1.00;1.00;;;33.70;99.90;;;;;;5097814;28;20188;-90
2021/06/18 10:05:02;;;;;;;1.15;1.13;;;34.30;99.90;;;;;;5103812;27;20172;-89
2021/06/18 10:07:30;;;;;;;1.88;1.20;;;34.60;99.90;;;;;;5092942;28;20210;-89
2021/06/18 10:09:56;;;;;;;1.42;1.33;;;34.70;99.90;;;;;;5098627;28;20250;-89
2021/06/18 10:12:21;;;;;;;1.80;1.70;;;34.60;99.90;;;;;;5109694;28;20223;-89
2021/06/18 10:15:04;;;;;;;1.65;1.55;;;34.10;99.90;;;;;;5109902;27;20640;-89
2021/06/18 10:17:30;;;;;;;1.23;1.13;;;34.40;99.90;;;;;;5098753;28;20695;-89
2021/06/18 10:19:56;;;;;;;1.13;1.08;;;34.60;99.90;;;;;;5100612;28;20208;-89
2021/06/18 10:22:23;;;;;;;2.22;1.42;;;34.70;99.90;;;;;;5104007;28;20240;-89
2021/06/18 10:25:00;;;;;;;1.23;1.23;;;34.50;99.90;;;;;;5103344;28;20191;-88
2021/06/18 10:27:45;;;;;;;2.60;1.85;;;34.40;99.90;;;;;;5095183;28;20701;-89
2021/06/18 10:30:39;;;;;;;1.10;1.10;;;34.60;99.90;;;;;;5097430;28;20211;-89
2021/06/18 10:33:38;;;;;;;3.50;2.40;;;34.60;99.90;;;;;;5098945;28;20222;-89
2021/06/18 10:36:24;;;;;;;2.67;1.90;;;33.90;99.90;;;;;;5107537;28;20182;-88
2021/06/18 10:39:09;;;;;;;1.92;1.60;;;34.00;99.90;;;;;;5099975;28;20200;-88
2021/06/18 10:41:47;;;;;;;1.23;1.13;;;34.00;99.90;;;;;;5106360;28;20177;-89
2021/06/18 10:44:32;;;;;;;2.15;1.77;;;34.30;99.90;;;;;;5103859;28;20187;-89
2021/06/18 10:47:06;;;;;;;3.63;1.33;;;33.90;99.90;;;;;;5102355;28;20213;-88
2021/06/18 10:49:42;;;;;;;1.00;1.00;;;34.20;99.90;;;;;;5097441;28;20249;-89
2021/06/18 10:52:23;;;;;;;1.67;1.58;;;34.40;99.90;;;;;;5097753;28;20172;-89
2021/06/18 10:54:55;;;;;;;1.75;1.50;;;34.70;99.90;;;;;;5101696;28;20246;-89
2021/06/18 10:57:26;;;;;;;1.42;1.25;;;34.80;99.90;;;;;;5098027;28;20179;-89
2021/06/18 10:59:57;;;;;;;1.85;1.55;;;35.10;99.90;;;;;;5103664;28;20294;-89
2021/06/18 11:02:22;;;;;;;1.70;1.60;;;35.20;99.90;;;;;;5104423;28;20183;-89
2021/06/18 11:05:16;;;;;;;1.40;1.30;;;34.40;99.90;;;;;;5092977;28;20620;-90
2021/06/18 11:07:43;;;;;;;1.02;1.00;;;34.30;99.90;;;;;;5084389;28;20216;-89
2021/06/18 11:10:28;;;;;;;1.38;1.20;;;34.40;99.90;;;;;;5102230;28;20204;-88
2021/06/18 11:13:03;;;;;;;0.80;0.80;;;34.60;99.90;;;;;;5104756;28;20172;-89
2021/06/18 11:15:29;;;;;;;1.95;1.50;;;34.60;99.90;;;;;;5097509;28;20232;-89
2021/06/18 11:18:05;;;;;;;1.73;1.63;;;34.10;99.90;;;;;;5091888;28;20690;-89
2021/06/18 11:20:33;;;;;;;1.48;1.38;;;33.30;99.90;;;;;;5093572;28;20184;-89
2021/06/18 11:23:26;;;;;;;1.17;1.17;;;33.50;99.90;;;;;;5093657;28;20691;-90
2021/06/18 11:25:58;;;;;;;1.25;1.23;;;33.90;99.90;;;;;;5092701;28;20221;-89
2021/06/18 11:28:24;;;;;;;1.95;1.73;;;33.60;99.90;;;;;;5100545;28;20282;-89
2021/06/18 11:31:13;;;;;;;1.45;1.35;;;33.60;99.90;;;;;;5097798;28;20188;-89
2021/06/18 11:33:42;;;;;;;1.15;0.98;;;33.60;99.90;;;;;;5096454;28;20176;-88
2021/06/18 11:36:17;;;;;;;1.48;1.33;;;33.90;99.90;;;;;;5095689;28;20187;-88
2021/06/18 11:38:44;;;;;;;0.93;0.93;;;34.00;99.90;;;;;;5110311;28;20290;-89
2021/06/18 11:41:11;;;;;;;1.27;0.95;;;33.90;99.90;;;;;;5103948;28;20208;-89
2021/06/18 11:43:40;;;;;;;1.35;1.20;;;34.30;99.90;;;;;;5103808;28;20172;-89
2021/06/18 11:46:07;;;;;;;1.35;1.13;;;34.80;99.90;;;;;;5103344;28;20251;-89
2021/06/18 11:48:33;;;;;;;1.35;1.25;;;35.20;99.90;;;;;;5107896;28;20257;-89
2021/06/18 11:50:59;;;;;;;1.45;1.35;;;35.60;99.90;;;;;;5106701;28;20196;-89
2021/06/18 11:53:36;;;;;;;1.45;1.05;;;35.70;99.90;;;;;;5099476;28;20184;-89
2021/06/18 11:56:02;;;;;;;1.25;1.15;;;35.70;99.90;;;;;;5097259;28;20183;-89
2021/06/18 11:58:39;;;;;;;1.75;1.30;;;35.00;99.90;;;;;;5104208;28;20207;-89
2021/06/18 12:01:15;;;;;;;2.40;1.52;;;35.00;99.90;;;;;;5103683;28;20183;-89
2021/06/18 12:03:45;;;;;;;2.15;1.83;;;35.10;99.90;;;;;;5096610;28;20183;-89
2021/06/18 12:06:23;;;;;;;1.42;1.33;;;34.70;99.90;;;;;;5099353;28;20172;-89
2021/06/18 12:09:04;;;;;;;2.03;1.80;;;34.40;99.90;;;;;;5099294;28;20290;-89
2021/06/18 12:11:31;;;;;;;1.90;1.65;;;34.50;99.90;;;;;;5108406;28;20180;-89
2021/06/18 12:13:57;;;;;;;1.67;1.55;;;34.40;99.90;;;;;;5106300;28;20184;-89
2021/06/18 12:16:35;;;;;;;1.17;1.13;;;34.30;99.90;;;;;;5094346;28;20213;-89
2021/06/18 12:19:23;;;;;;;1.77;1.67;;;34.90;99.90;;;;;;5101849;28;20207;-89
2021/06/18 12:22:15;;;;;;;2.30;2.03;;;34.60;99.90;;;;;;5109230;28;20228;-89
2021/06/18 12:24:50;;;;;;;1.70;1.60;;;34.70;99.90;;;;;;5099270;28;20234;-89
2021/06/18 12:27:19;;;;;;;4.82;1.88;;;34.40;99.90;;;;;;5106504;28;20203;-89
2021/06/18 12:29:55;;;;;;;1.40;1.27;;;35.20;99.90;;;;;;5108860;28;20192;-89
2021/06/18 12:32:29;;;;;;;2.72;1.52;;;35.50;99.90;;;;;;5102787;28;20543;-89
2021/06/18 12:35:03;;;;;;;1.75;1.08;;;35.90;99.90;;;;;;5096237;28;20607;-89
2021/06/18 12:37:42;;;;;;;1.50;1.40;;;35.90;99.90;;;;;;5097874;28;20647;-89
2021/06/18 12:40:13;;;;;;;1.73;1.63;;;36.20;99.90;;;;;;5095187;28;20218;-89
2021/06/18 12:42:47;;;;;;;1.50;1.40;;;36.40;99.90;;;;;;5096427;28;20176;-90
2021/06/18 12:45:18;;;;;;;1.10;1.10;;;36.20;99.90;;;;;;5104011;28;20606;-90
2021/06/18 12:47:46;;;;;;;2.50;2.30;;;36.40;99.90;;;;;;5106827;28;20679;-89
2021/06/18 12:50:36;;;;;;;1.80;1.42;;;36.60;99.90;;;;;;5106190;28;20196;-89
2021/06/18 12:53:15;;;;;;;3.08;1.35;;;36.80;99.90;;;;;;5093368;28;20198;-89
2021/06/18 12:55:49;;;;;;;1.40;1.30;;;36.90;99.90;;;;;;5102333;28;20174;-89
2021/06/18 12:58:23;;;;;;;2.78;2.13;;;36.70;99.90;;;;;;5104408;28;20196;-89
2021/06/18 13:01:00;;;;;;;2.45;2.08;;;35.60;99.90;;;;;;5103948;28;20176;-89
2021/06/18 13:03:33;;;;;;;2.67;1.95;;;35.10;99.90;;;;;;5102981;28;20179;-89